Time;durP1;ratioP1;P1;durP2;ratioP2;P2;SDS_P1;SDS_P2;PMS_P1;PMS_P2;Temp;Humidity;BMP_temperature;BMP_pressure;BME280_temperature;BME280_humidity;BME280_pressure;Samples;Min_cycle;Max_cycle;Signal;HPM_P1;HPM_P2
2022/05/16 00:02:37;;;;;;;9.02;2.78;;;17.30;95.40;;;;;;5051757;28;20376;-69
2022/05/16 00:05:41;;;;;;;7.63;2.80;;;17.20;95.10;;;;;;5051688;28;20039;-69
2022/05/16 00:08:45;;;;;;;7.95;3.17;;;17.20;94.70;;;;;;5052046;28;20064;-69
2022/05/16 00:11:49;;;;;;;8.82;2.30;;;17.10;94.30;;;;;;5051245;28;20495;-69
2022/05/16 00:14:53;;;;;;;7.78;2.88;;;17.10;94.70;;;;;;5051323;28;20044;-69
2022/05/16 00:17:57;;;;;;;6.15;2.65;;;17.00;94.30;;;;;;5051087;28;20064;-69
2022/05/16 00:21:01;;;;;;;8.02;2.47;;;17.00;94.10;;;;;;5051490;28;20048;-69
2022/05/16 00:24:05;;;;;;;6.82;2.00;;;17.00;94.20;;;;;;5050954;28;20043;-69
2022/05/16 00:27:10;;;;;;;6.43;2.10;;;17.00;94.10;;;;;;5050570;28;20036;-69
2022/05/16 00:30:18;;;;;;;7.35;2.90;;;17.00;93.70;;;;;;5038989;28;20044;-69
2022/05/16 00:33:23;;;;;;;8.10;2.35;;;16.90;93.80;;;;;;5050775;28;20042;-69
2022/05/16 00:36:28;;;;;;;9.57;3.78;;;17.00;93.30;;;;;;5050294;28;20032;-69
2022/05/16 00:39:33;;;;;;;5.43;2.58;;;16.90;95.30;;;;;;5050593;28;20499;-69
2022/05/16 00:42:38;;;;;;;8.23;3.53;;;16.60;96.70;;;;;;5050874;28;20039;-69
2022/05/16 00:45:44;;;;;;;13.52;3.83;;;16.30;98.10;;;;;;5050056;28;20043;-69
2022/05/16 00:48:48;;;;;;;10.82;3.30;;;16.00;99.90;;;;;;5050851;28;20392;-69
2022/05/16 00:52:03;;;;;;;12.93;3.22;;;15.90;99.90;;;;;;5050701;28;20499;-69
2022/05/16 00:55:14;;;;;;;6.57;3.45;;;15.70;99.90;;;;;;5050603;28;20072;-69
2022/05/16 00:58:19;;;;;;;11.68;4.32;;;15.60;99.90;;;;;;5050508;28;20048;-69
2022/05/16 01:04:48;;;;;;;13.57;4.82;;;15.40;99.90;;;;;;5050542;28;20048;-69
2022/05/16 01:07:58;;;;;;;12.25;5.55;;;15.30;99.90;;;;;;5050422;28;20490;-69
2022/05/16 01:11:06;;;;;;;13.32;5.07;;;15.20;99.90;;;;;;5054604;28;20044;-69
2022/05/16 01:14:10;;;;;;;14.35;5.22;;;15.20;99.90;;;;;;5054598;28;20056;-69
2022/05/16 01:17:15;;;;;;;10.70;5.47;;;15.10;99.90;;;;;;5054066;28;20043;-69
2022/05/16 01:20:20;;;;;;;12.48;5.32;;;15.10;99.90;;;;;;5054602;28;20068;-69
2022/05/16 01:23:26;;;;;;;11.43;5.07;;;15.10;99.90;;;;;;5054264;28;20048;-69
2022/05/16 01:26:32;;;;;;;9.95;5.22;;;15.10;99.90;;;;;;5053775;28;20499;-69
2022/05/16 01:29:36;;;;;;;10.45;5.03;;;15.10;99.90;;;;;;5054637;28;20052;-69
2022/05/16 01:32:40;;;;;;;10.65;5.03;;;15.10;99.90;;;;;;5054566;28;20052;-69
2022/05/16 01:35:45;;;;;;;12.85;6.25;;;15.10;99.90;;;;;;5054261;28;20048;-69
2022/05/16 01:38:50;;;;;;;10.02;4.85;;;15.10;99.90;;;;;;5054408;28;20059;-69
2022/05/16 01:41:54;;;;;;;13.75;5.22;;;15.10;99.90;;;;;;5053926;28;20040;-69
2022/05/16 01:44:58;;;;;;;13.63;5.10;;;15.10;99.90;;;;;;5053915;28;20256;-69
2022/05/16 01:48:04;;;;;;;12.25;4.80;;;15.00;99.90;;;;;;5053548;28;20060;-69
2022/05/16 01:51:11;;;;;;;12.90;5.40;;;15.00;99.90;;;;;;5054003;28;20388;-69
2022/05/16 01:54:15;;;;;;;10.15;5.15;;;15.00;99.90;;;;;;5053915;28;20495;-69
2022/05/16 01:57:19;;;;;;;12.43;4.78;;;15.10;99.90;;;;;;5053989;28;20040;-69
2022/05/16 02:00:24;;;;;;;11.02;4.90;;;15.10;99.90;;;;;;5054401;28;20048;-69
2022/05/16 02:03:28;;;;;;;10.63;4.28;;;15.10;99.90;;;;;;5053891;28;20391;-69
2022/05/16 02:06:32;;;;;;;10.30;3.22;;;15.00;99.90;;;;;;5053656;28;20060;-69
2022/05/16 02:09:36;;;;;;;9.15;3.20;;;15.00;99.90;;;;;;5054117;28;20044;-69
2022/05/16 02:12:41;;;;;;;12.77;4.05;;;15.00;99.90;;;;;;5053859;28;20399;-69
2022/05/16 02:15:46;;;;;;;10.45;2.80;;;15.10;99.90;;;;;;5053936;28;20463;-69
2022/05/16 02:18:49;;;;;;;8.63;2.90;;;15.10;99.90;;;;;;5053606;28;20502;-69
2022/05/16 02:25:18;;;;;;;9.65;4.05;;;15.00;99.90;;;;;;5053180;28;20048;-69
2022/05/16 02:28:22;;;;;;;12.45;4.97;;;14.70;99.90;;;;;;5053091;28;20044;-69
2022/05/16 02:31:26;;;;;;;12.13;5.72;;;14.60;99.90;;;;;;5053271;28;20048;-69
2022/05/16 02:34:31;;;;;;;16.13;6.25;;;14.30;99.90;;;;;;5053040;28;20051;-69
2022/05/16 02:37:36;;;;;;;13.93;5.65;;;14.10;99.90;;;;;;5052532;28;20400;-69
2022/05/16 02:40:40;;;;;;;9.82;5.70;;;14.00;99.90;;;;;;5053164;28;20043;-69
2022/05/16 02:43:44;;;;;;;12.88;5.50;;;13.90;99.90;;;;;;5052591;28;20048;-69
2022/05/16 02:46:49;;;;;;;11.77;5.75;;;13.80;99.90;;;;;;5052828;28;20052;-69
2022/05/16 02:49:54;;;;;;;15.43;7.82;;;13.70;99.90;;;;;;5052802;28;20044;-69
2022/05/16 02:52:57;;;;;;;14.13;5.95;;;13.70;99.90;;;;;;5053368;28;20055;-69
2022/05/16 02:56:01;;;;;;;14.10;6.05;;;13.60;99.90;;;;;;5053052;28;20047;-69
2022/05/16 02:59:06;;;;;;;13.90;6.35;;;13.60;99.90;;;;;;5052720;28;20044;-68
2022/05/16 03:02:11;;;;;;;12.63;5.80;;;13.60;99.90;;;;;;5052726;28;20048;-69
2022/05/16 03:05:15;;;;;;;17.65;5.72;;;13.50;99.90;;;;;;5047147;28;20048;-69
2022/05/16 03:08:19;;;;;;;11.85;5.28;;;13.60;99.90;;;;;;5052207;28;20044;-69
2022/05/16 03:11:23;;;;;;;11.27;5.90;;;13.60;99.90;;;;;;5052348;28;20071;-69
2022/05/16 03:14:27;;;;;;;15.32;6.32;;;13.60;99.90;;;;;;5052294;28;20055;-69
2022/05/16 03:17:31;;;;;;;11.45;5.65;;;13.60;99.90;;;;;;5052339;28;20056;-69
2022/05/16 03:20:36;;;;;;;14.65;5.88;;;13.60;99.90;;;;;;5052249;28;20064;-69
2022/05/16 03:23:39;;;;;;;17.63;6.80;;;13.60;99.90;;;;;;5051697;28;20048;-69
2022/05/16 03:26:43;;;;;;;11.77;5.55;;;13.60;99.90;;;;;;5052039;28;20507;-69
2022/05/16 03:29:49;;;;;;;12.45;6.75;;;13.60;99.90;;;;;;5052118;28;20056;-69
2022/05/16 03:32:53;;;;;;;13.57;6.90;;;13.60;99.90;;;;;;5051061;28;20086;-69
2022/05/16 03:35:58;;;;;;;19.50;6.43;;;13.60;99.90;;;;;;5051749;28;20395;-69
2022/05/16 03:42:25;;;;;;;12.50;6.22;;;13.40;99.90;;;;;;5051734;28;20047;-69
2022/05/16 03:45:30;;;;;;;13.18;5.05;;;13.30;99.90;;;;;;5051622;28;20051;-69
2022/05/16 03:48:35;;;;;;;17.42;5.63;;;13.30;99.90;;;;;;5051648;28;20490;-69
2022/05/16 03:51:41;;;;;;;12.75;5.57;;;13.30;99.90;;;;;;5051837;28;20048;-69
2022/05/16 03:54:46;;;;;;;11.07;6.15;;;13.30;99.90;;;;;;5051876;28;20051;-69
2022/05/16 03:57:51;;;;;;;13.63;5.82;;;13.20;99.90;;;;;;5051598;28;20048;-69
2022/05/16 04:00:55;;;;;;;12.40;5.80;;;13.20;99.90;;;;;;5051780;28;20048;-69
2022/05/16 04:03:59;;;;;;;10.75;6.22;;;13.30;99.90;;;;;;5051615;28;20399;-69
2022/05/16 04:07:03;;;;;;;16.10;7.15;;;13.30;99.90;;;;;;5051383;28;20052;-69
2022/05/16 04:10:09;;;;;;;15.65;7.47;;;13.40;99.90;;;;;;5051303;28;20040;-69
2022/05/16 04:13:12;;;;;;;16.08;6.53;;;13.50;99.90;;;;;;5051359;28;20061;-69
2022/05/16 04:16:16;;;;;;;13.13;6.70;;;13.50;99.90;;;;;;5050884;28;20063;-69
2022/05/16 04:19:20;;;;;;;15.20;6.40;;;13.60;99.90;;;;;;5051265;28;20059;-69
2022/05/16 04:22:24;;;;;;;15.30;7.07;;;13.60;99.90;;;;;;5051018;28;20475;-69
2022/05/16 04:25:30;;;;;;;15.02;6.35;;;13.60;99.90;;;;;;5051448;28;20048;-69
2022/05/16 04:28:34;;;;;;;18.67;7.75;;;13.70;99.90;;;;;;5051157;28;20396;-69
2022/05/16 04:31:37;;;;;;;17.77;6.80;;;13.70;99.90;;;;;;5051442;28;20684;-69
2022/05/16 04:34:41;;;;;;;16.40;6.82;;;13.70;99.90;;;;;;5050810;28;20128;-69
2022/05/16 04:37:45;;;;;;;13.25;6.20;;;13.70;99.90;;;;;;5050668;28;20108;-69
2022/05/16 04:44:12;;;;;;;11.75;5.53;;;14.10;99.90;;;;;;5050526;28;20052;-69
2022/05/16 04:47:16;;;;;;;13.70;5.55;;;16.80;99.90;;;;;;5050461;28;20051;-69
2022/05/16 04:50:25;;;;;;;14.93;5.72;;;19.40;99.90;;;;;;5050941;28;20044;-69
2022/05/16 04:53:29;;;;;;;9.82;5.10;;;21.60;99.90;;;;;;5050397;28;20044;-69
2022/05/16 04:56:34;;;;;;;12.32;5.32;;;22.90;99.90;;;;;;5050522;28;20043;-69
2022/05/16 04:59:38;;;;;;;11.68;4.70;;;23.50;99.90;;;;;;5050694;28;20067;-69
2022/05/16 05:02:43;;;;;;;7.72;4.70;;;24.30;99.60;;;;;;5050409;28;20510;-69
2022/05/16 05:05:47;;;;;;;10.43;4.68;;;25.20;98.20;;;;;;5050266;28;20056;-69
2022/05/16 05:08:53;;;;;;;12.60;5.03;;;25.30;96.70;;;;;;5050683;28;20044;-69
2022/05/16 05:15:19;;;;;;;13.07;4.93;;;25.60;97.20;;;;;;5050239;28;20052;-69
2022/05/16 05:18:23;;;;;;;14.07;4.82;;;26.50;95.50;;;;;;5049776;28;20415;-70
2022/05/16 05:21:28;;;;;;;7.72;4.45;;;26.60;95.50;;;;;;5050335;28;20415;-69
2022/05/16 05:24:32;;;;;;;13.68;4.60;;;26.80;94.80;;;;;;5049899;28;20512;-69
2022/05/16 05:27:36;;;;;;;9.02;4.20;;;27.40;94.40;;;;;;5050268;28;20052;-69
2022/05/16 05:30:40;;;;;;;12.05;4.78;;;27.50;94.40;;;;;;5050602;28;20040;-69
2022/05/16 05:33:44;;;;;;;12.02;4.80;;;27.70;93.60;;;;;;5049723;28;20056;-69
2022/05/16 05:36:50;;;;;;;9.25;3.83;;;28.00;93.20;;;;;;5050556;28;20056;-70
2022/05/16 05:39:54;;;;;;;8.27;3.97;;;27.90;92.80;;;;;;5050507;28;20112;-70
2022/05/16 05:43:06;;;;;;;7.35;3.85;;;28.00;93.00;;;;;;5050646;28;20049;-70
2022/05/16 05:46:10;;;;;;;11.18;3.80;;;28.20;91.90;;;;;;5050255;28;20391;-69
2022/05/16 05:49:14;;;;;;;7.60;3.78;;;28.30;91.40;;;;;;5050662;28;20044;-69
2022/05/16 05:52:19;;;;;;;6.50;3.70;;;29.20;90.50;;;;;;5050336;28;20048;-70
2022/05/16 05:55:23;;;;;;;11.77;4.93;;;29.00;90.20;;;;;;5050317;28;20052;-70
2022/05/16 05:58:27;;;;;;;6.70;4.40;;;26.20;91.90;;;;;;5054031;28;20044;-70
2022/05/16 06:01:32;;;;;;;9.93;5.38;;;25.00;93.40;;;;;;5053304;28;20048;-71
2022/05/16 06:04:36;;;;;;;13.40;5.95;;;24.10;95.30;;;;;;5053350;28;20036;-71
2022/05/16 06:07:40;;;;;;;16.77;7.03;;;24.50;94.80;;;;;;5053636;28;20048;-71
2022/05/16 06:10:45;;;;;;;11.25;6.22;;;22.30;96.10;;;;;;5053097;28;20040;-72
2022/05/16 06:13:51;;;;;;;13.98;6.10;;;20.50;99.10;;;;;;5053510;28;20479;-70
2022/05/16 06:16:54;;;;;;;18.15;8.15;;;20.20;99.90;;;;;;5052800;28;20059;-70
2022/05/16 06:19:59;;;;;;;12.70;6.07;;;19.50;99.90;;;;;;5053221;28;20056;-70
2022/05/16 06:23:04;;;;;;;16.98;6.30;;;20.30;99.90;;;;;;5052229;28;20040;-70
2022/05/16 06:26:08;;;;;;;12.38;7.13;;;22.00;99.70;;;;;;5051108;28;20044;-70
2022/05/16 06:29:13;;;;;;;16.52;8.15;;;23.70;97.80;;;;;;5048916;28;20044;-70
2022/05/16 06:32:18;;;;;;;11.27;5.90;;;25.20;96.10;;;;;;5049476;28;20652;-70
2022/05/16 06:35:22;;;;;;;10.82;5.40;;;26.10;94.70;;;;;;5049967;28;20048;-71
2022/05/16 06:38:28;;;;;;;11.85;4.53;;;26.10;94.40;;;;;;5033482;28;20475;-71
2022/05/16 06:41:34;;;;;;;9.32;4.20;;;26.60;94.40;;;;;;5040087;28;20056;-70
2022/05/16 06:44:39;;;;;;;10.02;4.53;;;25.80;94.30;;;;;;5038554;28;20047;-71
2022/05/16 06:47:43;;;;;;;11.60;4.85;;;25.20;94.90;;;;;;5049469;28;20380;-70
2022/05/16 06:50:49;;;;;;;11.65;4.80;;;24.40;95.10;;;;;;5051574;28;20040;-70
2022/05/16 06:53:55;;;;;;;9.52;4.57;;;25.30;95.00;;;;;;5051073;28;20388;-70
2022/05/16 06:57:00;;;;;;;10.60;4.43;;;25.30;94.50;;;;;;5051876;28;20047;-71
2022/05/16 07:00:06;;;;;;;7.85;4.65;;;27.10;93.70;;;;;;5052131;28;20051;-71
2022/05/16 07:03:12;;;;;;;10.48;4.13;;;27.30;92.90;;;;;;5050559;28;20048;-71
2022/05/16 07:06:16;;;;;;;5.65;3.80;;;27.60;92.90;;;;;;5040581;28;20044;-71
2022/05/16 07:09:20;;;;;;;7.90;3.97;;;28.20;91.30;;;;;;5052721;28;20048;-72
2022/05/16 07:12:25;;;;;;;11.30;4.07;;;28.50;91.30;;;;;;5050767;28;20036;-72
2022/05/16 07:15:29;;;;;;;12.45;4.18;;;29.70;91.10;;;;;;5048790;28;20044;-72
2022/05/16 07:18:32;;;;;;;11.82;3.97;;;28.00;90.80;;;;;;5047502;28;20048;-71
2022/05/16 07:21:38;;;;;;;13.48;4.43;;;28.50;91.20;;;;;;5051005;28;20412;-71
2022/05/16 07:24:43;;;;;;;12.70;4.25;;;30.20;90.70;;;;;;5048129;28;20056;-71
2022/05/16 07:27:59;;;;;;;7.35;3.70;;;31.40;90.00;;;;;;5045867;28;20064;-71
2022/05/16 07:31:04;;;;;;;7.53;3.50;;;32.40;87.20;;;;;;5042819;28;20048;-71
2022/05/16 07:34:09;;;;;;;8.98;3.25;;;33.10;84.30;;;;;;5044649;28;20044;-71
2022/05/16 07:37:15;;;;;;;8.52;3.53;;;33.80;83.10;;;;;;5045332;28;20537;-71
2022/05/16 07:40:21;;;;;;;8.57;3.55;;;34.30;81.00;;;;;;5047890;28;20044;-70
2022/05/16 07:43:26;;;;;;;7.50;3.00;;;33.80;81.60;;;;;;5047770;28;20040;-70
2022/05/16 07:46:30;;;;;;;6.15;3.70;;;34.40;80.70;;;;;;5039118;28;20044;-70
2022/05/16 07:49:34;;;;;;;6.18;3.30;;;35.60;78.60;;;;;;5047629;28;20049;-70
2022/05/16 07:52:41;;;;;;;8.85;3.58;;;35.60;77.30;;;;;;5043485;28;20040;-69
2022/05/16 07:55:49;;;;;;;12.52;3.25;;;33.80;77.50;;;;;;5044634;28;20048;-70
2022/05/16 07:58:55;;;;;;;8.07;3.15;;;33.70;78.60;;;;;;5055301;28;20063;-70
2022/05/16 08:02:02;;;;;;;7.75;3.22;;;35.30;78.20;;;;;;5049401;28;20379;-71
2022/05/16 08:05:08;;;;;;;6.32;2.92;;;36.50;76.30;;;;;;5046195;28;20048;-71
2022/05/16 08:11:35;;;;;;;9.68;3.28;;;38.70;72.20;;;;;;5042029;28;20680;-72
2022/05/16 08:14:43;;;;;;;7.25;2.67;;;38.70;71.30;;;;;;5042288;28;20071;-72
2022/05/16 08:17:47;;;;;;;9.57;3.08;;;38.80;69.50;;;;;;5044598;28;20059;-71
2022/05/16 08:20:52;;;;;;;8.32;3.08;;;39.10;68.80;;;;;;5046447;28;20060;-71
2022/05/16 08:23:56;;;;;;;7.95;3.13;;;39.30;68.70;;;;;;5041723;28;20071;-71
2022/05/16 08:27:02;;;;;;;5.35;2.55;;;39.40;67.50;;;;;;5041389;28;20048;-72
2022/05/16 08:30:07;;;;;;;7.75;2.40;;;40.50;65.40;;;;;;5043193;28;20044;-72
2022/05/16 08:33:11;;;;;;;13.88;3.00;;;41.00;64.50;;;;;;5041113;28;20036;-72
2022/05/16 08:39:55;;;;;;;5.10;2.50;;;41.20;63.10;;;;;;5050918;28;20113;-71
2022/05/16 08:43:08;;;;;;;6.60;2.65;;;40.80;63.60;;;;;;5044658;28;20056;-71
2022/05/16 08:46:19;;;;;;;11.20;2.67;;;40.70;62.80;;;;;;5038417;28;20518;-71
2022/05/16 08:49:52;;;;;;;7.28;2.33;;;39.60;62.60;;;;;;5048886;28;20047;-71
2022/05/16 08:53:07;;;;;;;7.40;2.35;;;41.00;61.80;;;;;;5047333;28;20435;-71
2022/05/16 08:56:19;;;;;;;6.07;2.20;;;41.50;59.30;;;;;;5033212;28;20044;-71
2022/05/16 08:59:26;;;;;;;8.15;2.30;;;42.10;59.30;;;;;;5044982;28;20051;-71
2022/05/16 09:02:32;;;;;;;8.52;2.15;;;39.40;59.80;;;;;;5042581;28;20048;-72
2022/05/16 09:05:44;;;;;;;8.02;2.13;;;41.10;58.50;;;;;;5045390;28;20052;-71
2022/05/16 09:09:03;;;;;;;9.77;1.80;;;42.50;55.80;;;;;;5042476;28;20036;-71
2022/05/16 09:12:40;;;;;;;7.43;1.98;;;43.20;54.70;;;;;;5043962;28;20047;-71
2022/05/16 09:16:12;;;;;;;7.75;2.50;;;43.80;55.00;;;;;;5043281;28;20048;-72
2022/05/16 09:19:27;;;;;;;8.63;2.10;;;44.90;53.20;;;;;;5036372;28;20305;-72
2022/05/16 09:22:33;;;;;;;5.80;2.08;;;45.10;52.60;;;;;;5045761;28;20676;-71
2022/05/16 09:25:51;;;;;;;5.57;2.03;;;45.30;52.30;;;;;;5041880;28;20048;-72
2022/05/16 09:29:16;;;;;;;9.13;2.50;;;45.20;51.20;;;;;;5046328;28;20142;-72
2022/05/16 09:32:29;;;;;;;10.65;2.25;;;45.70;50.60;;;;;;5048398;28;20048;-71
2022/05/16 09:35:51;;;;;;;6.93;2.33;;;46.80;51.30;;;;;;5049947;28;20036;-73
2022/05/16 09:38:55;;;;;;;5.40;1.85;;;46.40;49.90;;;;;;5049013;28;20040;-73
2022/05/16 09:42:04;;;;;;;6.50;1.80;;;45.70;51.00;;;;;;5045108;28;20032;-72
2022/05/16 09:45:18;;;;;;;5.30;1.90;;;46.20;49.80;;;;;;5054450;28;20387;-72
2022/05/16 09:48:24;;;;;;;7.80;2.40;;;42.90;48.70;;;;;;5041176;28;20053;-72
2022/05/16 09:51:30;;;;;;;7.55;2.05;;;44.30;49.40;;;;;;5047623;28;20526;-70
2022/05/16 09:54:38;;;;;;;6.18;2.03;;;40.90;49.60;;;;;;5046711;28;20040;-70
2022/05/16 09:57:53;;;;;;;8.13;2.67;;;36.60;50.70;;;;;;5046593;28;20055;-72
2022/05/16 10:01:01;;;;;;;7.50;2.05;;;39.60;53.60;;;;;;5049761;28;20052;-71
2022/05/16 10:04:17;;;;;;;4.97;1.63;;;38.90;48.70;;;;;;5042842;28;20044;-71
2022/05/16 10:07:27;;;;;;;7.10;2.22;;;37.80;51.40;;;;;;5047866;28;20074;-71
2022/05/16 10:10:36;;;;;;;6.15;1.85;;;40.40;52.10;;;;;;5047066;28;20040;-71
2022/05/16 10:13:40;;;;;;;7.18;2.67;;;43.00;51.30;;;;;;5050924;28;20036;-71
2022/05/16 10:16:48;;;;;;;6.20;2.20;;;42.20;47.90;;;;;;5047320;28;20083;-71
2022/05/16 10:19:58;;;;;;;13.73;3.00;;;42.80;49.90;;;;;;5047388;28;20056;-71
2022/05/16 10:23:08;;;;;;;8.07;2.20;;;44.20;51.00;;;;;;5043116;28;20387;-70
2022/05/16 10:26:18;;;;;;;6.20;1.80;;;44.60;51.00;;;;;;5050680;28;20048;-71
2022/05/16 10:29:27;;;;;;;8.25;2.13;;;44.80;50.10;;;;;;5046005;28;20036;-71
2022/05/16 10:36:13;;;;;;;6.55;2.03;;;43.40;51.40;;;;;;5046242;28;20636;-72
2022/05/16 10:39:23;;;;;;;6.03;2.70;;;44.70;50.60;;;;;;5057288;28;20045;-72
2022/05/16 10:42:46;;;;;;;5.80;2.08;;;46.00;49.60;;;;;;5047866;28;20036;-72
2022/05/16 10:46:09;;;;;;;9.15;2.00;;;46.50;48.50;;;;;;5045770;28;20821;-71
2022/05/16 10:49:19;;;;;;;6.93;2.17;;;46.40;48.30;;;;;;5044267;28;20032;-71
2022/05/16 10:52:26;;;;;;;6.40;2.50;;;46.80;47.40;;;;;;5047980;28;20359;-72
2022/05/16 10:55:51;;;;;;;23.55;3.03;;;46.80;47.60;;;;;;5053243;28;20075;-71
2022/05/16 10:59:15;;;;;;;9.48;2.05;;;46.50;47.70;;;;;;5056523;28;20072;-71
2022/05/16 11:02:50;;;;;;;7.15;1.67;;;39.00;49.80;;;;;;5038201;28;20404;-71
2022/05/16 11:06:30;;;;;;;11.90;2.47;;;40.00;49.80;;;;;;5044361;28;20044;-72
2022/05/16 11:10:01;;;;;;;8.57;2.40;;;42.00;50.60;;;;;;5044620;28;20498;-72
2022/05/16 11:13:36;;;;;;;4.00;1.70;;;43.50;48.70;;;;;;5049743;28;20044;-72
2022/05/16 11:16:41;;;;;;;7.97;1.92;;;44.00;48.60;;;;;;5049819;28;20036;-72
2022/05/16 11:20:08;;;;;;;4.72;1.60;;;44.40;46.50;;;;;;5044627;28;20052;-72
2022/05/16 11:23:48;;;;;;;3.75;1.33;;;45.10;46.70;;;;;;5046995;28;20044;-71
2022/05/16 11:26:51;;;;;;;;;;;43.60;43.40;;;;;;5043524;28;20087;-72
2022/05/16 11:29:55;;;;;;;5.13;1.58;;;43.30;45.30;;;;;;5051784;28;19931;-72
2022/05/16 11:33:15;;;;;;;4.78;1.50;;;44.10;47.60;;;;;;5030117;28;20040;-72
2022/05/16 11:36:47;;;;;;;9.10;1.90;;;44.20;47.40;;;;;;5047829;28;20392;-71
2022/05/16 11:40:02;;;;;;;7.07;1.85;;;43.40;47.50;;;;;;5047247;28;20048;-71
2022/05/16 11:43:25;;;;;;;6.40;1.75;;;40.30;49.00;;;;;;5046622;28;20036;-71
2022/05/16 11:46:39;;;;;;;7.20;2.10;;;40.60;48.90;;;;;;5045665;28;20396;-72
2022/05/16 11:50:08;;;;;;;7.40;1.90;;;40.70;50.10;;;;;;5041995;28;20036;-71
2022/05/16 11:53:24;;;;;;;10.50;2.85;;;39.00;48.10;;;;;;5045234;28;20048;-71
2022/05/16 12:04:26;;;;;;;6.85;2.03;;;39.90;49.60;;;;;;5037374;28;20048;-72
2022/05/16 12:07:35;;;;;;;7.63;2.10;;;40.10;48.70;;;;;;5039682;28;20049;-71
2022/05/16 12:11:02;;;;;;;6.57;2.03;;;37.80;49.30;;;;;;5046478;28;20506;-71
2022/05/16 12:14:23;;;;;;;13.20;2.08;;;38.80;49.70;;;;;;5044989;28;20040;-72
2022/05/16 12:17:27;;;;;;;10.88;2.72;;;38.30;50.00;;;;;;5044906;28;20047;-70
2022/05/16 12:20:44;;;;;;;6.00;2.25;;;38.60;50.80;;;;;;5050329;28;20064;-71
2022/05/16 12:23:49;;;;;;;6.15;2.10;;;37.20;53.40;;;;;;5048315;28;20047;-71
2022/05/16 12:26:59;;;;;;;6.45;2.45;;;37.60;53.80;;;;;;5037390;28;20048;-70
2022/05/16 12:30:21;;;;;;;6.20;2.50;;;38.20;51.60;;;;;;5042670;28;20408;-70
2022/05/16 12:33:43;;;;;;;7.40;2.40;;;38.30;52.30;;;;;;5031915;28;20651;-71
2022/05/16 12:36:46;;;;;;;14.07;2.97;;;38.40;52.40;;;;;;5044583;28;20055;-71
2022/05/16 12:40:04;;;;;;;12.38;2.63;;;38.60;53.40;;;;;;5035785;28;20060;-72
2022/05/16 12:43:43;;;;;;;8.98;2.75;;;38.40;55.30;;;;;;5045844;28;20048;-71
2022/05/16 12:47:05;;;;;;;6.88;2.58;;;37.60;54.80;;;;;;5043280;28;20052;-72
2022/05/16 12:50:48;;;;;;;10.38;2.72;;;37.20;54.10;;;;;;5042368;28;20040;-73
2022/05/16 12:54:15;;;;;;;8.20;2.50;;;36.80;56.60;;;;;;5047290;28;20044;-72
2022/05/16 12:57:35;;;;;;;6.63;2.70;;;36.70;54.00;;;;;;5044486;28;20044;-72
2022/05/16 13:00:52;;;;;;;15.18;2.50;;;36.30;55.40;;;;;;5037356;28;20074;-73
2022/05/16 13:04:11;;;;;;;8.02;2.45;;;36.20;55.70;;;;;;5040880;28;20039;-73
2022/05/16 13:07:24;;;;;;;9.20;2.55;;;36.20;56.10;;;;;;5024971;28;20033;-73
2022/05/16 13:10:49;;;;;;;7.22;2.22;;;36.20;55.40;;;;;;5038851;28;20044;-72
2022/05/16 13:14:17;;;;;;;6.03;2.28;;;36.20;57.80;;;;;;5038784;28;20403;-72
2022/05/16 13:17:44;;;;;;;7.75;1.92;;;36.10;57.10;;;;;;5040863;28;20048;-73
2022/05/16 13:20:51;;;;;;;9.35;2.33;;;35.90;56.50;;;;;;5051066;28;20052;-73
2022/05/16 13:23:57;;;;;;;6.35;2.08;;;35.70;55.20;;;;;;5022566;28;20042;-72
2022/05/16 13:30:27;;;;;;;8.43;2.67;;;35.90;56.30;;;;;;5043523;28;20047;-72
2022/05/16 13:33:36;;;;;;;8.25;2.80;;;35.30;56.20;;;;;;5043557;28;20048;-72
2022/05/16 13:36:46;;;;;;;5.95;2.20;;;35.00;55.90;;;;;;5040292;28;20139;-72
2022/05/16 13:40:06;;;;;;;12.88;2.50;;;34.90;55.90;;;;;;5044478;28;20052;-71
2022/05/16 13:43:22;;;;;;;6.97;2.28;;;34.90;56.80;;;;;;5044672;28;20057;-72
2022/05/16 13:46:29;;;;;;;9.15;2.30;;;34.80;56.70;;;;;;5035543;28;20060;-72
2022/05/16 13:49:33;;;;;;;8.10;2.38;;;34.70;56.90;;;;;;5041169;28;20044;-71
2022/05/16 13:52:40;;;;;;;10.13;2.35;;;34.30;56.80;;;;;;5037162;28;20506;-72
2022/05/16 13:55:52;;;;;;;10.70;2.40;;;33.90;56.50;;;;;;5049042;28;20040;-71
2022/05/16 13:58:56;;;;;;;12.70;2.47;;;33.80;57.60;;;;;;5046294;28;20052;-72
2022/05/16 14:02:11;;;;;;;11.70;3.42;;;33.80;59.00;;;;;;5049578;28;20049;-72
2022/05/16 14:05:28;;;;;;;17.08;2.10;;;33.70;57.90;;;;;;5038702;28;20056;-72
2022/05/16 14:08:45;;;;;;;14.02;2.80;;;33.70;58.40;;;;;;5027219;28;20079;-71
2022/05/16 14:11:51;;;;;;;7.53;2.42;;;31.20;57.00;;;;;;5045124;28;20501;-72
2022/05/16 14:14:56;;;;;;;6.50;2.22;;;31.50;60.40;;;;;;5040768;28;20048;-72
2022/05/16 14:18:03;;;;;;;10.48;2.83;;;32.00;59.90;;;;;;5059242;28;20048;-71
2022/05/16 14:21:23;;;;;;;7.80;2.65;;;32.10;59.50;;;;;;5046820;28;20652;-72
2022/05/16 14:24:49;;;;;;;12.15;3.20;;;32.00;60.00;;;;;;5045778;28;20040;-73
2022/05/16 14:28:02;;;;;;;11.60;2.45;;;32.10;60.50;;;;;;5052121;28;20048;-72
2022/05/16 14:31:28;;;;;;;9.00;2.10;;;32.10;59.00;;;;;;5051045;28;20063;-71
2022/05/16 14:34:43;;;;;;;12.32;2.95;;;31.80;59.90;;;;;;5047756;28;20044;-73
2022/05/16 14:37:51;;;;;;;9.73;2.45;;;31.60;58.90;;;;;;5043875;28;20044;-73
2022/05/16 14:41:06;;;;;;;10.02;2.88;;;31.50;60.40;;;;;;5043448;28;20059;-73
2022/05/16 14:44:37;;;;;;;10.07;2.63;;;31.40;61.70;;;;;;5048806;28;20051;-73
2022/05/16 14:47:48;;;;;;;5.65;2.72;;;30.50;62.80;;;;;;5040704;28;20057;-71
2022/05/16 14:50:52;;;;;;;22.08;3.38;;;30.60;60.50;;;;;;5049251;28;20044;-72
2022/05/16 14:53:56;;;;;;;8.13;2.55;;;30.40;61.70;;;;;;5050118;28;20467;-72
2022/05/16 14:57:01;;;;;;;15.60;3.08;;;30.40;62.00;;;;;;5045710;28;20045;-72
2022/05/16 15:04:02;;;;;;;7.85;2.80;;;30.50;65.00;;;;;;5049068;28;20044;-72
2022/05/16 15:07:01;;;;;;;15.63;3.28;;;30.30;62.40;;;;;;5046163;28;20680;-72
2022/05/16 15:10:09;;;;;;;8.25;2.80;;;30.30;63.70;;;;;;5051988;28;20047;-72
2022/05/16 15:13:13;;;;;;;8.70;2.72;;;30.10;62.60;;;;;;5048601;28;20052;-73
2022/05/16 15:16:22;;;;;;;8.85;2.58;;;30.00;65.20;;;;;;5031827;28;20045;-72
2022/05/16 15:19:26;;;;;;;6.32;2.45;;;30.00;65.50;;;;;;5034292;28;20846;-72
2022/05/16 15:22:32;;;;;;;9.48;2.60;;;29.90;65.90;;;;;;5042854;28;20494;-72
2022/05/16 15:25:37;;;;;;;8.02;3.15;;;29.80;65.50;;;;;;5044066;28;20073;-72
2022/05/16 15:28:42;;;;;;;9.43;2.60;;;29.70;66.10;;;;;;5035460;28;20045;-71
2022/05/16 15:31:47;;;;;;;8.85;2.88;;;29.60;67.20;;;;;;5044157;28;20056;-72
2022/05/16 15:34:51;;;;;;;13.80;3.78;;;29.40;66.40;;;;;;5046457;28;20040;-72
2022/05/16 15:37:55;;;;;;;12.90;3.47;;;29.00;68.30;;;;;;5045999;28;20048;-72
2022/05/16 15:40:59;;;;;;;10.73;2.90;;;29.10;71.00;;;;;;5045977;28;20051;-71
2022/05/16 15:44:04;;;;;;;14.15;3.10;;;29.00;69.00;;;;;;5042341;28;20048;-72
2022/05/16 15:47:20;;;;;;;14.00;3.92;;;28.90;71.10;;;;;;5033832;28;20044;-72
2022/05/16 15:50:30;;;;;;;15.43;3.78;;;28.90;71.90;;;;;;5034230;28;20044;-72
2022/05/16 15:53:34;;;;;;;12.07;3.92;;;28.70;72.90;;;;;;5032019;28;20676;-72
2022/05/16 15:56:38;;;;;;;11.85;4.63;;;28.60;73.50;;;;;;5033886;28;20056;-72
2022/05/16 15:59:43;;;;;;;10.65;3.88;;;28.30;74.00;;;;;;5048221;28;20048;-72
2022/05/16 16:02:51;;;;;;;13.07;4.28;;;28.30;74.80;;;;;;5054865;28;20048;-71
2022/05/16 16:09:17;;;;;;;13.18;4.40;;;28.10;76.70;;;;;;5059712;28;20055;-72
2022/05/16 16:12:21;;;;;;;9.82;3.80;;;28.10;78.00;;;;;;5038932;28;20048;-72
2022/05/16 16:15:26;;;;;;;9.48;4.38;;;28.00;76.80;;;;;;5056369;28;20040;-72
2022/05/16 16:18:30;;;;;;;11.25;4.00;;;27.90;77.30;;;;;;5036730;28;20040;-72
2022/05/16 16:21:35;;;;;;;12.35;3.75;;;27.80;77.50;;;;;;5051272;28;20047;-72
2022/05/16 16:24:39;;;;;;;12.65;4.10;;;27.80;76.90;;;;;;5045828;28;20044;-72
2022/05/16 16:27:44;;;;;;;10.15;3.67;;;27.60;78.00;;;;;;5038933;28;20511;-73
2022/05/16 16:30:51;;;;;;;12.38;4.15;;;27.50;78.30;;;;;;5047310;28;20044;-72
2022/05/16 16:33:56;;;;;;;11.95;3.60;;;27.30;77.80;;;;;;5045932;28;20384;-72
2022/05/16 16:37:00;;;;;;;12.57;3.60;;;27.20;78.00;;;;;;5050324;28;20043;-72
2022/05/16 16:40:07;;;;;;;10.98;3.65;;;27.10;76.90;;;;;;5043184;28;20043;-71
2022/05/16 16:43:36;;;;;;;16.13;3.65;;;26.90;76.10;;;;;;5050587;28;20044;-71
2022/05/16 16:46:41;;;;;;;10.27;3.28;;;26.90;76.20;;;;;;5029861;28;20052;-71
2022/05/16 16:49:46;;;;;;;8.70;3.08;;;26.80;74.50;;;;;;5049123;28;20048;-72
2022/05/16 16:59:36;;;;;;;6.25;2.67;;;26.50;74.50;;;;;;5045278;28;20379;-71
2022/05/16 17:02:46;;;;;;;9.90;2.60;;;26.40;73.90;;;;;;5048303;28;20422;-71
2022/05/16 17:05:51;;;;;;;9.38;2.90;;;26.30;74.80;;;;;;5049073;28;20040;-72
2022/05/16 17:08:54;;;;;;;13.63;3.30;;;26.20;74.90;;;;;;5053817;28;20040;-72
2022/05/16 17:11:59;;;;;;;12.27;2.80;;;26.20;75.40;;;;;;5040226;28;20052;-72